createdAt,value
2022-08-28T00:01:01.769Z,25.29
2022-08-28T00:03:28.851Z,25.26
2022-08-28T00:05:57.329Z,25.24
2022-08-28T00:08:24.321Z,25.23
2022-08-28T00:10:51.321Z,25.24
2022-08-28T00:13:22.491Z,25.22
2022-08-28T00:15:56.315Z,25.21
2022-08-28T00:18:23.577Z,25.22
2022-08-28T00:20:52.370Z,25.20
2022-08-28T00:23:20.201Z,25.18
2022-08-28T00:25:47.572Z,25.18
2022-08-28T00:28:24.304Z,25.18
2022-08-28T00:30:55.164Z,25.20
2022-08-28T00:33:24.160Z,25.20
2022-08-28T00:35:52.097Z,25.17
2022-08-28T00:38:21.074Z,25.17
2022-08-28T00:40:51.897Z,25.13
2022-08-28T00:43:47.768Z,25.16
2022-08-28T00:46:23.991Z,25.13
2022-08-28T00:48:51.004Z,25.14
2022-08-28T00:51:38.649Z,25.10
2022-08-28T00:54:08.402Z,25.10
2022-08-28T00:56:39.763Z,25.09
2022-08-28T00:59:15.916Z,25.09
2022-08-28T01:01:45.523Z,25.11
2022-08-28T01:04:23.646Z,25.07
2022-08-28T01:06:54.110Z,25.08
2022-08-28T01:09:26.015Z,25.12
2022-08-28T01:12:03.040Z,25.13
2022-08-28T01:14:33.838Z,25.09
2022-08-28T01:17:01.314Z,25.04
2022-08-28T01:19:48.148Z,25.06
2022-08-28T01:22:37.289Z,25.05
2022-08-28T01:25:12.465Z,25.01
2022-08-28T01:27:42.030Z,25.00
2022-08-28T01:30:17.617Z,24.99
2022-08-28T01:32:49.989Z,25.00
2022-08-28T01:35:23.646Z,25.00
2022-08-28T01:38:09.314Z,24.98
2022-08-28T01:40:45.078Z,24.99
2022-08-28T01:43:21.483Z,24.98
2022-08-28T01:45:56.194Z,24.98
2022-08-28T01:48:26.251Z,24.99
2022-08-28T01:50:53.191Z,25.01
2022-08-28T01:53:30.739Z,25.01
2022-08-28T01:56:04.526Z,25.00
2022-08-28T01:58:36.188Z,25.00
2022-08-28T02:01:09.862Z,25.04
2022-08-28T02:03:37.014Z,25.03
2022-08-28T02:06:04.529Z,25.06
2022-08-28T02:08:31.535Z,25.04
2022-08-28T02:10:58.986Z,25.04
2022-08-28T02:13:25.925Z,25.03
2022-08-28T02:15:53.093Z,25.05
2022-08-28T02:18:20.355Z,25.07
2022-08-28T02:20:47.488Z,25.06
2022-08-28T02:23:16.779Z,25.08
2022-08-28T02:25:43.695Z,25.09
2022-08-28T02:28:11.000Z,25.08
2022-08-28T02:30:38.837Z,25.11
2022-08-28T02:33:07.034Z,25.10
2022-08-28T02:35:33.978Z,25.11
2022-08-28T02:38:01.579Z,25.12
2022-08-28T02:40:29.124Z,25.11
2022-08-28T02:42:56.182Z,25.08
2022-08-28T02:45:23.217Z,25.10
2022-08-28T02:47:54.192Z,25.11
2022-08-28T02:50:21.821Z,25.09
2022-08-28T02:52:49.312Z,25.09
2022-08-28T02:55:19.107Z,25.07
2022-08-28T02:57:48.337Z,25.06
2022-08-28T03:00:21.753Z,25.05
2022-08-28T03:02:50.510Z,25.03
2022-08-28T03:05:23.331Z,25.02
2022-08-28T03:07:53.362Z,25.02
2022-08-28T03:10:21.657Z,24.99
2022-08-28T03:12:49.316Z,25.00
2022-08-28T03:15:18.000Z,25.00
2022-08-28T03:17:45.560Z,25.01
2022-08-28T03:20:18.983Z,24.99
2022-08-28T03:23:04.804Z,24.98
2022-08-28T03:25:31.952Z,24.97
2022-08-28T03:27:58.869Z,24.95
2022-08-28T03:30:26.033Z,24.95
2022-08-28T03:32:53.857Z,24.95
2022-08-28T03:35:21.899Z,24.97
2022-08-28T03:37:48.865Z,24.95
2022-08-28T03:40:16.279Z,24.96
2022-08-28T03:42:43.207Z,24.94
2022-08-28T03:45:20.160Z,24.94
2022-08-28T03:47:47.008Z,24.92
2022-08-28T03:50:14.510Z,24.91
2022-08-28T03:52:41.694Z,24.92
2022-08-28T03:55:12.621Z,24.92
2022-08-28T03:57:40.387Z,24.90
2022-08-28T04:00:12.211Z,24.92
2022-08-28T04:02:43.737Z,24.91
2022-08-28T04:05:12.007Z,24.90
2022-08-28T04:07:40.080Z,24.91
2022-08-28T04:10:07.974Z,24.94
2022-08-28T04:12:36.910Z,24.92
2022-08-28T04:15:07.446Z,24.92
2022-08-28T04:17:36.980Z,24.91
2022-08-28T04:20:05.065Z,24.90
2022-08-28T04:22:31.941Z,24.91
2022-08-28T04:24:58.921Z,24.91
2022-08-28T04:27:25.867Z,24.90
2022-08-28T04:29:53.033Z,24.90
2022-08-28T04:32:19.982Z,24.88
2022-08-28T04:34:46.925Z,24.88
2022-08-28T04:37:13.800Z,24.85
2022-08-28T04:39:40.680Z,24.84
2022-08-28T04:42:07.906Z,24.83
2022-08-28T04:44:35.055Z,24.82
2022-08-28T04:47:02.297Z,24.82
2022-08-28T04:49:29.324Z,24.81
2022-08-28T04:51:56.194Z,24.77
2022-08-28T04:54:23.083Z,24.74
2022-08-28T04:56:50.023Z,24.74
2022-08-28T04:59:16.950Z,24.74
2022-08-28T05:01:44.056Z,24.75
2022-08-28T05:04:12.676Z,24.72
2022-08-28T05:06:45.919Z,24.72
2022-08-28T05:09:19.372Z,24.71
2022-08-28T05:11:48.515Z,24.72
2022-08-28T05:14:16.449Z,24.69
2022-08-28T05:16:48.675Z,24.72
2022-08-28T05:19:18.399Z,24.70
2022-08-28T05:21:45.709Z,24.67
2022-08-28T05:24:13.844Z,24.68
2022-08-28T05:26:40.941Z,24.68
2022-08-28T05:29:09.915Z,24.67
2022-08-28T05:31:39.003Z,24.66
2022-08-28T05:34:07.393Z,24.68
2022-08-28T05:36:37.425Z,24.67
2022-08-28T05:39:09.250Z,24.65
2022-08-28T05:41:39.171Z,24.66
2022-08-28T05:44:11.032Z,24.66
2022-08-28T05:46:41.483Z,24.65
2022-08-28T05:49:10.269Z,24.67
2022-08-28T05:51:42.046Z,24.70
2022-08-28T05:54:10.056Z,24.70
2022-08-28T05:56:40.649Z,24.72
2022-08-28T05:59:08.566Z,24.72
2022-08-28T06:01:43.981Z,24.74
2022-08-28T06:04:21.171Z,24.75
2022-08-28T06:06:49.440Z,24.78
2022-08-28T06:09:25.337Z,24.81
2022-08-28T06:12:00.960Z,24.84
2022-08-28T06:14:29.661Z,24.86
2022-08-28T06:16:58.324Z,24.88
2022-08-28T06:19:28.753Z,24.93
2022-08-28T06:21:59.503Z,24.96
2022-08-28T06:24:28.395Z,24.99
2022-08-28T06:26:58.176Z,25.01
2022-08-28T06:29:27.779Z,25.02
2022-08-28T06:31:58.440Z,25.04
2022-08-28T06:34:27.038Z,25.10
2022-08-28T06:36:55.380Z,25.14
2022-08-28T06:39:22.993Z,25.18
2022-08-28T06:41:50.055Z,25.21
2022-08-28T06:44:20.706Z,25.25
2022-08-28T06:46:51.832Z,25.29
2022-08-28T06:49:21.398Z,25.33
2022-08-28T06:51:48.720Z,25.37
2022-08-28T06:54:22.151Z,25.42
2022-08-28T06:56:50.880Z,25.48
2022-08-28T06:59:17.946Z,25.49
2022-08-28T07:01:44.866Z,25.57
2022-08-28T07:04:14.562Z,25.57
2022-08-28T07:06:46.820Z,25.62
2022-08-28T07:09:14.221Z,25.65
2022-08-28T07:11:46.612Z,25.64
2022-08-28T07:14:13.473Z,25.67
2022-08-28T07:16:41.858Z,25.68
2022-08-28T07:19:11.981Z,25.70
2022-08-28T07:21:43.236Z,25.73
2022-08-28T07:24:13.253Z,25.76
2022-08-28T07:26:42.303Z,25.76
2022-08-28T07:29:11.706Z,25.82
2022-08-28T07:31:46.458Z,25.87
2022-08-28T07:34:15.655Z,25.86
2022-08-28T07:36:43.141Z,25.90
2022-08-28T07:39:13.661Z,25.93
2022-08-28T07:41:42.738Z,25.94
2022-08-28T07:44:31.817Z,26.01
2022-08-28T07:47:05.571Z,26.04
2022-08-28T07:49:34.719Z,26.09
2022-08-28T07:52:02.465Z,26.11
2022-08-28T07:54:29.408Z,26.18
2022-08-28T07:56:56.290Z,26.24
2022-08-28T07:59:23.601Z,26.26
2022-08-28T08:01:52.141Z,26.30
2022-08-28T08:04:21.031Z,26.35
2022-08-28T08:06:48.997Z,26.40
2022-08-28T08:09:19.242Z,26.46
2022-08-28T08:11:47.823Z,26.53
2022-08-28T08:14:17.475Z,26.56
2022-08-28T08:16:46.807Z,26.62
2022-08-28T08:19:15.018Z,26.66
2022-08-28T08:21:54.521Z,26.72
2022-08-28T08:24:28.305Z,26.79
2022-08-28T08:27:01.151Z,26.87
2022-08-28T08:29:36.162Z,26.94
2022-08-28T08:32:10.706Z,27.02
2022-08-28T08:34:45.715Z,27.14
2022-08-28T08:37:13.791Z,27.19
2022-08-28T08:39:42.784Z,27.28
2022-08-28T08:42:27.603Z,27.38
2022-08-28T08:44:58.869Z,27.50
2022-08-28T08:47:48.422Z,27.63
2022-08-28T08:50:35.392Z,27.79
2022-08-28T08:53:28.348Z,27.93
2022-08-28T08:55:58.168Z,28.12
2022-08-28T08:58:41.705Z,28.24
2022-08-28T09:01:20.130Z,28.41
2022-08-28T09:03:55.962Z,28.59
2022-08-28T09:07:02.412Z,28.86
2022-08-28T09:09:53.279Z,29.04
2022-08-28T09:12:30.271Z,29.23
2022-08-28T09:15:05.290Z,29.42
2022-08-28T09:17:41.358Z,29.60
2022-08-28T09:20:12.325Z,29.76
2022-08-28T09:22:45.724Z,29.87
2022-08-28T09:25:44.669Z,30.02
2022-08-28T09:28:26.483Z,30.17
2022-08-28T09:31:05.614Z,30.18
2022-08-28T09:33:46.266Z,30.21
2022-08-28T09:36:33.861Z,30.25
2022-08-28T09:39:10.077Z,30.22
2022-08-28T09:42:24.835Z,30.17
2022-08-28T09:45:20.950Z,30.27
2022-08-28T09:47:59.631Z,30.29
2022-08-28T09:50:41.612Z,30.43
2022-08-28T09:53:11.579Z,30.63
2022-08-28T09:56:02.389Z,30.79
2022-08-28T09:58:48.655Z,31.09
2022-08-28T10:01:30.342Z,31.34
2022-08-28T10:04:26.695Z,31.51
2022-08-28T10:06:55.354Z,31.62
2022-08-28T10:10:02.791Z,31.80
2022-08-28T10:12:33.313Z,31.99
2022-08-28T10:15:22.411Z,32.09
2022-08-28T10:18:03.784Z,32.17
2022-08-28T10:20:53.769Z,32.36
2022-08-28T10:23:45.692Z,32.50
2022-08-28T10:26:37.189Z,32.47
2022-08-28T10:29:51.595Z,32.44
2022-08-28T10:32:53.501Z,32.35
2022-08-28T10:35:23.148Z,32.23
2022-08-28T10:38:18.808Z,32.08
2022-08-28T10:41:28.727Z,31.93
2022-08-28T10:44:01.857Z,31.94
2022-08-28T10:46:46.140Z,32.14
2022-08-28T10:49:46.445Z,32.26
2022-08-28T10:52:23.932Z,32.38
2022-08-28T10:55:07.762Z,32.38
2022-08-28T10:57:56.388Z,32.49
2022-08-28T11:00:26.720Z,32.69
2022-08-28T11:03:04.305Z,32.91
2022-08-28T11:05:41.411Z,33.13
2022-08-28T11:08:28.222Z,33.37
2022-08-28T11:10:58.807Z,33.48
2022-08-28T11:13:46.710Z,33.70
2022-08-28T11:16:28.022Z,33.74
2022-08-28T11:19:25.052Z,33.95
2022-08-28T11:22:18.189Z,33.92
2022-08-28T11:25:32.455Z,34.09
2022-08-28T11:28:19.303Z,34.02
2022-08-28T11:31:06.277Z,34.09
2022-08-28T11:33:50.362Z,34.22
2022-08-28T11:36:20.245Z,34.44
2022-08-28T11:38:53.266Z,34.64
2022-08-28T11:41:27.484Z,34.79
2022-08-28T11:44:09.495Z,35.06
2022-08-28T11:47:36.427Z,35.26
2022-08-28T11:50:24.021Z,35.40
2022-08-28T11:53:10.547Z,35.50
2022-08-28T11:56:06.729Z,35.63
2022-08-28T11:59:10.223Z,35.71
2022-08-28T12:01:37.765Z,35.78
2022-08-28T12:04:12.188Z,35.86
2022-08-28T12:07:13.891Z,35.96
2022-08-28T12:09:49.341Z,35.94
2022-08-28T12:12:22.086Z,35.80
2022-08-28T12:14:55.036Z,35.63
2022-08-28T12:17:21.726Z,35.42
2022-08-28T12:20:25.479Z,35.27
2022-08-28T12:22:57.621Z,35.14
2022-08-28T12:25:42.458Z,35.02
2022-08-28T12:28:31.740Z,34.94
2022-08-28T12:31:46.892Z,34.82
2022-08-28T12:34:45.827Z,34.73
2022-08-28T12:37:52.215Z,34.68
2022-08-28T12:40:53.426Z,34.68
2022-08-28T12:43:50.925Z,34.63
2022-08-28T12:46:26.835Z,34.62
2022-08-28T12:48:58.629Z,34.60
2022-08-28T12:51:28.395Z,34.62
2022-08-28T12:54:06.687Z,34.61
2022-08-28T12:56:38.250Z,34.56
2022-08-28T12:59:37.511Z,34.53
2022-08-28T13:02:20.993Z,34.48
2022-08-28T13:04:53.452Z,34.46
2022-08-28T13:07:40.444Z,34.42
2022-08-28T13:10:31.334Z,34.35
2022-08-28T13:13:08.128Z,34.29
2022-08-28T13:16:01.314Z,34.26
2022-08-28T13:19:06.506Z,34.24
2022-08-28T13:21:37.383Z,34.18
2022-08-28T13:24:22.790Z,34.19
2022-08-28T13:27:13.948Z,34.14
2022-08-28T13:30:00.030Z,34.15
2022-08-28T13:32:34.819Z,34.15
2022-08-28T13:35:21.820Z,34.21
2022-08-28T13:38:13.266Z,34.22
2022-08-28T13:41:12.634Z,34.24
2022-08-28T13:43:47.319Z,34.26
2022-08-28T13:46:14.233Z,34.31
2022-08-28T13:48:41.077Z,34.40
2022-08-28T13:51:20.136Z,34.52
2022-08-28T13:53:49.246Z,34.55
2022-08-28T13:56:17.263Z,34.61
2022-08-28T13:58:44.584Z,34.64
2022-08-28T14:01:20.356Z,34.67
2022-08-28T14:03:53.431Z,34.70
2022-08-28T14:06:20.260Z,34.70
2022-08-28T14:08:50.661Z,34.70
2022-08-28T14:11:17.493Z,34.70
2022-08-28T14:13:47.341Z,34.71
2022-08-28T14:16:25.372Z,34.66
2022-08-28T14:18:52.809Z,34.64
2022-08-28T14:21:20.794Z,34.63
2022-08-28T14:23:47.669Z,34.61
2022-08-28T14:26:14.472Z,34.58
2022-08-28T14:28:42.273Z,34.56
2022-08-28T14:31:14.265Z,34.52
2022-08-28T14:33:45.215Z,34.51
2022-08-28T14:36:23.415Z,34.48
2022-08-28T14:38:54.302Z,34.47
2022-08-28T14:41:24.039Z,34.44
2022-08-28T14:43:51.648Z,34.37
2022-08-28T14:46:28.517Z,34.35
2022-08-28T14:48:58.802Z,34.30
2022-08-28T14:51:27.362Z,34.27
2022-08-28T14:53:54.636Z,34.27
2022-08-28T14:56:22.437Z,34.24
2022-08-28T14:58:49.352Z,34.21
2022-08-28T15:01:40.681Z,34.16
2022-08-28T15:04:12.272Z,34.15
2022-08-28T15:06:41.619Z,34.15
2022-08-28T15:09:10.781Z,34.10
2022-08-28T15:11:38.282Z,34.08
2022-08-28T15:14:06.457Z,34.09
2022-08-28T15:16:39.178Z,34.05
2022-08-28T15:19:12.069Z,34.00
2022-08-28T15:21:52.589Z,33.95
2022-08-28T15:24:25.238Z,33.88
2022-08-28T15:26:52.733Z,33.79
2022-08-28T15:29:20.265Z,33.71
2022-08-28T15:31:49.992Z,33.65
2022-08-28T15:34:22.237Z,33.62
2022-08-28T15:36:55.345Z,33.54
2022-08-28T15:39:43.567Z,33.51
2022-08-28T15:42:11.302Z,33.48
2022-08-28T15:44:38.874Z,33.42
2022-08-28T15:47:06.807Z,33.39
2022-08-28T15:49:43.566Z,33.38
2022-08-28T15:52:18.653Z,33.35
2022-08-28T15:54:45.852Z,33.35
2022-08-28T15:57:12.690Z,33.31
2022-08-28T15:59:48.877Z,33.28
2022-08-28T16:02:23.207Z,33.21
2022-08-28T16:04:51.087Z,33.21
2022-08-28T16:07:19.430Z,33.25
2022-08-28T16:09:46.467Z,33.17
2022-08-28T16:12:13.868Z,33.17
2022-08-28T16:14:40.972Z,33.11
2022-08-28T16:17:11.087Z,33.09
2022-08-28T16:19:42.338Z,33.08
2022-08-28T16:22:12.579Z,33.05
2022-08-28T16:24:39.394Z,33.03
2022-08-28T16:27:09.513Z,32.99
2022-08-28T16:29:40.716Z,32.99
2022-08-28T16:32:07.778Z,32.91
2022-08-28T16:34:35.129Z,32.91
2022-08-28T16:37:04.329Z,32.87
2022-08-28T16:39:31.449Z,32.81
2022-08-28T16:41:58.802Z,32.79
2022-08-28T16:44:26.564Z,32.74
2022-08-28T16:46:55.566Z,32.68
2022-08-28T16:49:23.584Z,32.61
2022-08-28T16:51:50.539Z,32.56
2022-08-28T16:54:18.269Z,32.49
2022-08-28T16:56:46.231Z,32.43
2022-08-28T16:59:16.401Z,32.39
2022-08-28T17:01:43.486Z,32.34
2022-08-28T17:04:10.821Z,32.28
2022-08-28T17:06:37.656Z,32.24
2022-08-28T17:09:04.434Z,32.16
2022-08-28T17:11:31.945Z,32.10
2022-08-28T17:14:00.331Z,32.07
2022-08-28T17:16:31.403Z,32.01
2022-08-28T17:18:59.351Z,31.95
2022-08-28T17:21:44.686Z,31.88
2022-08-28T17:24:13.641Z,31.81
2022-08-28T17:26:42.320Z,31.76
2022-08-28T17:29:09.326Z,31.71
2022-08-28T17:31:36.792Z,31.66
2022-08-28T17:34:07.348Z,31.60
2022-08-28T17:36:36.303Z,31.53
2022-08-28T17:39:10.474Z,31.44
2022-08-28T17:41:38.129Z,31.42
2022-08-28T17:44:06.016Z,31.32
2022-08-28T17:46:37.467Z,31.26
2022-08-28T17:49:07.038Z,31.19
2022-08-28T17:51:43.760Z,31.13
2022-08-28T17:54:21.301Z,31.11
2022-08-28T17:56:49.380Z,31.03
2022-08-28T17:59:16.697Z,30.97
2022-08-28T18:01:44.911Z,30.92
2022-08-28T18:04:14.467Z,30.86
2022-08-28T18:06:41.326Z,30.80
2022-08-28T18:09:09.797Z,30.80
2022-08-28T18:11:37.399Z,30.71
2022-08-28T18:14:04.856Z,30.68
2022-08-28T18:16:35.026Z,30.60
2022-08-28T18:19:04.693Z,30.54
2022-08-28T18:21:32.000Z,30.50
2022-08-28T18:23:58.903Z,30.45
2022-08-28T18:26:26.095Z,30.39
2022-08-28T18:28:52.976Z,30.37
2022-08-28T18:31:20.214Z,30.29
2022-08-28T18:33:47.270Z,30.24
2022-08-28T18:36:15.307Z,30.19
2022-08-28T18:38:44.157Z,30.13
2022-08-28T18:41:12.022Z,30.10
2022-08-28T18:43:39.126Z,30.03
2022-08-28T18:46:09.193Z,30.01
2022-08-28T18:48:37.730Z,29.97
2022-08-28T18:51:12.256Z,29.90
2022-08-28T18:53:42.360Z,29.86
2022-08-28T18:56:11.019Z,29.80
2022-08-28T18:58:41.708Z,29.71
2022-08-28T19:01:09.794Z,29.68
2022-08-28T19:03:37.346Z,29.63
2022-08-28T19:06:06.192Z,29.60
2022-08-28T19:08:33.185Z,29.54
2022-08-28T19:11:00.008Z,29.49
2022-08-28T19:13:27.808Z,29.41
2022-08-28T19:15:54.771Z,29.36
2022-08-28T19:18:21.821Z,29.28
2022-08-28T19:20:48.772Z,29.24
2022-08-28T19:23:17.875Z,29.18
2022-08-28T19:25:44.922Z,29.13
2022-08-28T19:28:11.737Z,29.04
2022-08-28T19:30:38.557Z,29.02
2022-08-28T19:33:05.917Z,28.96
2022-08-28T19:35:33.754Z,28.90
2022-08-28T19:38:01.469Z,28.89
2022-08-28T19:40:29.058Z,28.84
2022-08-28T19:42:56.150Z,28.76
2022-08-28T19:45:23.169Z,28.74
2022-08-28T19:47:50.112Z,28.69
2022-08-28T19:50:17.312Z,28.64
2022-08-28T19:52:44.939Z,28.57
2022-08-28T19:55:23.368Z,28.54
2022-08-28T19:57:50.446Z,28.49
2022-08-28T20:00:20.605Z,28.41
2022-08-28T20:02:52.128Z,28.38
2022-08-28T20:05:20.646Z,28.33
2022-08-28T20:07:48.146Z,28.29
2022-08-28T20:10:16.242Z,28.26
2022-08-28T20:12:48.086Z,28.18
2022-08-28T20:15:17.927Z,28.17
2022-08-28T20:17:49.411Z,28.10
2022-08-28T20:20:20.367Z,28.09
2022-08-28T20:22:47.472Z,28.04
2022-08-28T20:25:15.606Z,28.01
2022-08-28T20:27:42.448Z,27.99
2022-08-28T20:30:11.318Z,27.97
2022-08-28T20:32:40.533Z,27.93
2022-08-28T20:35:11.214Z,27.93
2022-08-28T20:37:45.088Z,27.90
2022-08-28T20:40:17.989Z,27.89
2022-08-28T20:42:46.015Z,27.87
2022-08-28T20:45:15.491Z,27.85
2022-08-28T20:47:43.041Z,27.82
2022-08-28T20:50:10.206Z,27.80
2022-08-28T20:52:37.901Z,27.81
2022-08-28T20:55:07.664Z,27.78
2022-08-28T20:57:35.904Z,27.73
2022-08-28T21:00:06.728Z,27.72
2022-08-28T21:02:33.546Z,27.68
2022-08-28T21:05:01.101Z,27.70
2022-08-28T21:07:28.777Z,27.67
2022-08-28T21:10:05.397Z,27.65
2022-08-28T21:12:37.738Z,27.62
2022-08-28T21:15:12.495Z,27.57
2022-08-28T21:17:40.643Z,27.53
2022-08-28T21:20:12.971Z,27.51
2022-08-28T21:22:40.750Z,27.44
2022-08-28T21:25:11.045Z,27.41
2022-08-28T21:27:38.709Z,27.38
2022-08-28T21:30:08.212Z,27.35
2022-08-28T21:32:36.099Z,27.32
2022-08-28T21:35:06.690Z,27.29
2022-08-28T21:37:34.147Z,27.23
2022-08-28T21:40:02.246Z,27.19
2022-08-28T21:42:29.376Z,27.18
2022-08-28T21:44:56.203Z,27.13
2022-08-28T21:47:24.601Z,27.10
2022-08-28T21:49:55.445Z,27.07
2022-08-28T21:52:26.889Z,27.02
2022-08-28T21:55:02.444Z,26.98
2022-08-28T21:57:30.470Z,26.93
2022-08-28T21:59:58.408Z,26.90
2022-08-28T22:02:25.621Z,26.85
2022-08-28T22:04:52.742Z,26.82
2022-08-28T22:07:20.795Z,26.80
2022-08-28T22:09:47.659Z,26.80
2022-08-28T22:12:15.368Z,26.74
2022-08-28T22:14:42.292Z,26.69
2022-08-28T22:17:11.588Z,26.65
2022-08-28T22:19:39.703Z,26.65
2022-08-28T22:22:26.283Z,26.63
2022-08-28T22:24:53.402Z,26.60
2022-08-28T22:27:20.356Z,26.57
2022-08-28T22:29:47.257Z,26.55
2022-08-28T22:32:15.206Z,26.50
2022-08-28T22:34:46.051Z,26.49
2022-08-28T22:37:13.646Z,26.46
2022-08-28T22:39:42.079Z,26.45
2022-08-28T22:42:10.003Z,26.40
2022-08-28T22:44:38.478Z,26.44
2022-08-28T22:47:05.934Z,26.37
2022-08-28T22:49:33.136Z,26.36
2022-08-28T22:51:59.931Z,26.32
2022-08-28T22:54:26.876Z,26.27
2022-08-28T22:56:53.668Z,26.27
2022-08-28T22:59:20.704Z,26.21
2022-08-28T23:01:47.559Z,26.19
2022-08-28T23:04:14.575Z,26.14
2022-08-28T23:06:41.427Z,26.12
2022-08-28T23:09:08.834Z,26.10
2022-08-28T23:11:37.513Z,26.09
2022-08-28T23:14:05.769Z,26.01
2022-08-28T23:16:35.330Z,26.01
2022-08-28T23:19:13.103Z,25.98
2022-08-28T23:21:43.676Z,25.91
2022-08-28T23:24:12.817Z,25.87
2022-08-28T23:26:39.788Z,25.86
2022-08-28T23:29:06.607Z,25.81
2022-08-28T23:31:33.462Z,25.83
2022-08-28T23:34:00.342Z,25.76
2022-08-28T23:36:27.330Z,25.69
2022-08-28T23:38:54.151Z,25.74
2022-08-28T23:41:21.307Z,25.70
2022-08-28T23:43:49.240Z,25.71
2022-08-28T23:46:20.865Z,25.69
2022-08-28T23:48:49.769Z,25.64
2022-08-28T23:51:17.456Z,25.62
2022-08-28T23:53:46.002Z,25.62
2022-08-28T23:56:14.683Z,25.59
2022-08-28T23:58:43.299Z,25.56
